sensor_id;sensor_type;location;lat;lon;timestamp;P1;durP1;ratioP1;P2;durP2;ratioP2
20012;SDS011;10167;42.852;23.042;2024-01-15T00:00:07;3.30;;;2.55;;
20012;SDS011;10167;42.852;23.042;2024-01-15T00:02:37;5.25;;;3.05;;
20012;SDS011;10167;42.852;23.042;2024-01-15T00:05:07;6.95;;;3.83;;
20012;SDS011;10167;42.852;23.042;2024-01-15T00:07:36;3.88;;;2.85;;
20012;SDS011;10167;42.852;23.042;2024-01-15T00:10:05;2.55;;;2.00;;
20012;SDS011;10167;42.852;23.042;2024-01-15T00:12:36;4.93;;;2.15;;
20012;SDS011;10167;42.852;23.042;2024-01-15T00:15:05;0.57;;;0.57;;
20012;SDS011;10167;42.852;23.042;2024-01-15T00:17:35;2.45;;;1.77;;
20012;SDS011;10167;42.852;23.042;2024-01-15T00:20:05;6.75;;;1.63;;
20012;SDS011;10167;42.852;23.042;2024-01-15T00:22:35;3.90;;;3.50;;
20012;SDS011;10167;42.852;23.042;2024-01-15T00:25:04;4.45;;;1.42;;
20012;SDS011;10167;42.852;23.042;2024-01-15T00:27:36;3.67;;;3.40;;
20012;SDS011;10167;42.852;23.042;2024-01-15T00:30:06;5.63;;;3.25;;
20012;SDS011;10167;42.852;23.042;2024-01-15T00:32:36;11.48;;;3.55;;
20012;SDS011;10167;42.852;23.042;2024-01-15T00:35:06;2.47;;;1.98;;
20012;SDS011;10167;42.852;23.042;2024-01-15T00:37:36;6.68;;;2.90;;
20012;SDS011;10167;42.852;23.042;2024-01-15T00:40:05;4.13;;;1.80;;
20012;SDS011;10167;42.852;23.042;2024-01-15T00:42:37;2.28;;;2.05;;
20012;SDS011;10167;42.852;23.042;2024-01-15T00:45:06;1.15;;;1.15;;
20012;SDS011;10167;42.852;23.042;2024-01-15T00:47:36;0.73;;;0.73;;
20012;SDS011;10167;42.852;23.042;2024-01-15T00:50:05;3.50;;;1.85;;
20012;SDS011;10167;42.852;23.042;2024-01-15T00:52:35;2.78;;;1.80;;
20012;SDS011;10167;42.852;23.042;2024-01-15T00:55:06;1.92;;;1.75;;
20012;SDS011;10167;42.852;23.042;2024-01-15T00:57:37;3.38;;;2.25;;
20012;SDS011;10167;42.852;23.042;2024-01-15T01:00:06;2.05;;;1.38;;
20012;SDS011;10167;42.852;23.042;2024-01-15T01:02:36;1.27;;;1.27;;
20012;SDS011;10167;42.852;23.042;2024-01-15T01:05:08;2.33;;;1.13;;
20012;SDS011;10167;42.852;23.042;2024-01-15T01:07:38;3.72;;;2.42;;
20012;SDS011;10167;42.852;23.042;2024-01-15T01:10:07;1.08;;;0.98;;
20012;SDS011;10167;42.852;23.042;2024-01-15T01:12:38;14.00;;;3.85;;
20012;SDS011;10167;42.852;23.042;2024-01-15T01:15:07;1.92;;;1.83;;
20012;SDS011;10167;42.852;23.042;2024-01-15T01:17:37;2.13;;;1.92;;
20012;SDS011;10167;42.852;23.042;2024-01-15T01:20:06;1.83;;;1.23;;
20012;SDS011;10167;42.852;23.042;2024-01-15T01:22:39;1.60;;;1.50;;
20012;SDS011;10167;42.852;23.042;2024-01-15T01:25:08;1.02;;;1.00;;
20012;SDS011;10167;42.852;23.042;2024-01-15T01:27:39;1.77;;;1.40;;
20012;SDS011;10167;42.852;23.042;2024-01-15T01:30:09;1.60;;;1.50;;
20012;SDS011;10167;42.852;23.042;2024-01-15T01:32:38;5.88;;;2.53;;
20012;SDS011;10167;42.852;23.042;2024-01-15T01:35:08;2.28;;;1.75;;
20012;SDS011;10167;42.852;23.042;2024-01-15T01:37:37;3.30;;;1.95;;
20012;SDS011;10167;42.852;23.042;2024-01-15T01:40:07;2.90;;;2.70;;
20012;SDS011;10167;42.852;23.042;2024-01-15T01:42:37;2.40;;;2.15;;
20012;SDS011;10167;42.852;23.042;2024-01-15T01:45:08;3.10;;;2.45;;
20012;SDS011;10167;42.852;23.042;2024-01-15T01:47:37;0.60;;;0.60;;
20012;SDS011;10167;42.852;23.042;2024-01-15T01:50:08;0.80;;;0.80;;
20012;SDS011;10167;42.852;23.042;2024-01-15T01:52:37;2.88;;;1.75;;
20012;SDS011;10167;42.852;23.042;2024-01-15T01:55:06;1.98;;;1.85;;
20012;SDS011;10167;42.852;23.042;2024-01-15T01:57:39;5.05;;;1.88;;
20012;SDS011;10167;42.852;23.042;2024-01-15T02:00:11;1.13;;;1.08;;
20012;SDS011;10167;42.852;23.042;2024-01-15T02:02:41;1.95;;;1.33;;
20012;SDS011;10167;42.852;23.042;2024-01-15T02:05:10;1.73;;;1.63;;
20012;SDS011;10167;42.852;23.042;2024-01-15T02:10:12;0.77;;;0.77;;
20012;SDS011;10167;42.852;23.042;2024-01-15T02:12:43;3.13;;;0.98;;
20012;SDS011;10167;42.852;23.042;2024-01-15T02:15:16;1.35;;;1.27;;
20012;SDS011;10167;42.852;23.042;2024-01-15T02:20:35;1.10;;;1.10;;
20012;SDS011;10167;42.852;23.042;2024-01-15T02:23:13;1.58;;;1.27;;
20012;SDS011;10167;42.852;23.042;2024-01-15T02:25:43;1.90;;;1.80;;
20012;SDS011;10167;42.852;23.042;2024-01-15T02:28:14;4.60;;;2.63;;
20012;SDS011;10167;42.852;23.042;2024-01-15T02:30:44;0.65;;;0.65;;
20012;SDS011;10167;42.852;23.042;2024-01-15T02:33:13;7.13;;;1.27;;
20012;SDS011;10167;42.852;23.042;2024-01-15T02:35:42;2.03;;;1.85;;
20012;SDS011;10167;42.852;23.042;2024-01-15T02:38:14;1.55;;;1.30;;
20012;SDS011;10167;42.852;23.042;2024-01-15T02:40:44;1.42;;;1.33;;
20012;SDS011;10167;42.852;23.042;2024-01-15T02:43:13;1.05;;;0.95;;
20012;SDS011;10167;42.852;23.042;2024-01-15T02:45:43;1.30;;;0.93;;
20012;SDS011;10167;42.852;23.042;2024-01-15T02:48:12;0.93;;;0.68;;
20012;SDS011;10167;42.852;23.042;2024-01-15T02:50:41;0.40;;;0.40;;
20012;SDS011;10167;42.852;23.042;2024-01-15T02:53:10;0.68;;;0.68;;
20012;SDS011;10167;42.852;23.042;2024-01-15T02:55:41;0.70;;;0.70;;
20012;SDS011;10167;42.852;23.042;2024-01-15T02:58:10;0.88;;;0.88;;
20012;SDS011;10167;42.852;23.042;2024-01-15T03:00:39;1.05;;;1.02;;
20012;SDS011;10167;42.852;23.042;2024-01-15T03:03:10;1.23;;;1.13;;
20012;SDS011;10167;42.852;23.042;2024-01-15T03:05:39;1.08;;;1.08;;
20012;SDS011;10167;42.852;23.042;2024-01-15T03:08:08;8.07;;;1.50;;
20012;SDS011;10167;42.852;23.042;2024-01-15T03:10:37;1.00;;;1.00;;
20012;SDS011;10167;42.852;23.042;2024-01-15T03:13:08;1.95;;;0.88;;
20012;SDS011;10167;42.852;23.042;2024-01-15T03:15:37;0.60;;;0.60;;
20012;SDS011;10167;42.852;23.042;2024-01-15T03:18:06;0.82;;;0.75;;
20012;SDS011;10167;42.852;23.042;2024-01-15T03:20:35;1.88;;;1.77;;
20012;SDS011;10167;42.852;23.042;2024-01-15T03:23:04;0.85;;;0.85;;
20012;SDS011;10167;42.852;23.042;2024-01-15T03:25:33;2.00;;;1.90;;
20012;SDS011;10167;42.852;23.042;2024-01-15T03:28:03;3.45;;;1.83;;
20012;SDS011;10167;42.852;23.042;2024-01-15T03:30:34;1.60;;;1.38;;
20012;SDS011;10167;42.852;23.042;2024-01-15T03:33:03;2.30;;;1.50;;
20012;SDS011;10167;42.852;23.042;2024-01-15T03:35:33;3.00;;;2.25;;
20012;SDS011;10167;42.852;23.042;2024-01-15T03:38:02;3.10;;;1.33;;
20012;SDS011;10167;42.852;23.042;2024-01-15T03:40:31;1.63;;;1.52;;
20012;SDS011;10167;42.852;23.042;2024-01-15T03:43:01;1.00;;;1.00;;
20012;SDS011;10167;42.852;23.042;2024-01-15T03:45:30;0.47;;;0.47;;
20012;SDS011;10167;42.852;23.042;2024-01-15T03:48:00;0.90;;;0.90;;
20012;SDS011;10167;42.852;23.042;2024-01-15T03:50:30;2.05;;;1.95;;
20012;SDS011;10167;42.852;23.042;2024-01-15T03:52:59;4.38;;;2.25;;
20012;SDS011;10167;42.852;23.042;2024-01-15T03:55:28;2.20;;;2.10;;
20012;SDS011;10167;42.852;23.042;2024-01-15T03:57:57;3.13;;;2.10;;
20012;SDS011;10167;42.852;23.042;2024-01-15T04:00:26;3.47;;;3.15;;
20012;SDS011;10167;42.852;23.042;2024-01-15T04:02:55;2.05;;;1.83;;
20012;SDS011;10167;42.852;23.042;2024-01-15T04:05:26;2.08;;;1.73;;
20012;SDS011;10167;42.852;23.042;2024-01-15T04:07:55;6.85;;;2.97;;
20012;SDS011;10167;42.852;23.042;2024-01-15T04:10:24;4.15;;;2.95;;
20012;SDS011;10167;42.852;23.042;2024-01-15T04:12:53;2.40;;;2.25;;
20012;SDS011;10167;42.852;23.042;2024-01-15T04:15:22;1.42;;;1.33;;
20012;SDS011;10167;42.852;23.042;2024-01-15T04:18:07;2.08;;;1.85;;
20012;SDS011;10167;42.852;23.042;2024-01-15T04:20:37;3.17;;;2.95;;
20012;SDS011;10167;42.852;23.042;2024-01-15T04:23:06;5.22;;;3.28;;
20012;SDS011;10167;42.852;23.042;2024-01-15T04:25:35;10.88;;;3.65;;
20012;SDS011;10167;42.852;23.042;2024-01-15T04:28:05;6.22;;;1.15;;
20012;SDS011;10167;42.852;23.042;2024-01-15T04:30:34;2.90;;;2.70;;
20012;SDS011;10167;42.852;23.042;2024-01-15T04:33:04;3.42;;;3.13;;
20012;SDS011;10167;42.852;23.042;2024-01-15T04:35:34;3.83;;;3.38;;
20012;SDS011;10167;42.852;23.042;2024-01-15T04:38:04;3.17;;;2.28;;
20012;SDS011;10167;42.852;23.042;2024-01-15T04:40:33;9.02;;;2.35;;
20012;SDS011;10167;42.852;23.042;2024-01-15T04:43:03;4.57;;;2.42;;
20012;SDS011;10167;42.852;23.042;2024-01-15T04:45:32;3.47;;;2.90;;
20012;SDS011;10167;42.852;23.042;2024-01-15T04:48:02;3.20;;;3.00;;
20012;SDS011;10167;42.852;23.042;2024-01-15T04:50:31;2.47;;;2.28;;
20012;SDS011;10167;42.852;23.042;2024-01-15T04:53:00;4.00;;;2.67;;
20012;SDS011;10167;42.852;23.042;2024-01-15T04:55:31;2.70;;;2.38;;
20012;SDS011;10167;42.852;23.042;2024-01-15T04:58:00;6.38;;;2.92;;
20012;SDS011;10167;42.852;23.042;2024-01-15T05:00:29;3.70;;;3.38;;
20012;SDS011;10167;42.852;23.042;2024-01-15T05:02:58;5.50;;;2.65;;
20012;SDS011;10167;42.852;23.042;2024-01-15T05:05:27;2.58;;;2.38;;
20012;SDS011;10167;42.852;23.042;2024-01-15T05:07:56;4.32;;;3.00;;
20012;SDS011;10167;42.852;23.042;2024-01-15T05:10:26;2.10;;;1.92;;
20012;SDS011;10167;42.852;23.042;2024-01-15T05:12:56;1.95;;;1.85;;
20012;SDS011;10167;42.852;23.042;2024-01-15T05:15:25;1.42;;;1.40;;
20012;SDS011;10167;42.852;23.042;2024-01-15T05:17:55;1.80;;;1.70;;
20012;SDS011;10167;42.852;23.042;2024-01-15T05:20:24;6.63;;;4.80;;
20012;SDS011;10167;42.852;23.042;2024-01-15T05:22:53;2.75;;;2.47;;
20012;SDS011;10167;42.852;23.042;2024-01-15T05:25:22;9.73;;;3.00;;
20012;SDS011;10167;42.852;23.042;2024-01-15T05:27:51;7.75;;;3.58;;
20012;SDS011;10167;42.852;23.042;2024-01-15T05:30:22;5.30;;;3.03;;
20012;SDS011;10167;42.852;23.042;2024-01-15T05:32:51;6.20;;;4.75;;
20012;SDS011;10167;42.852;23.042;2024-01-15T05:35:21;5.32;;;2.67;;
20012;SDS011;10167;42.852;23.042;2024-01-15T05:37:50;3.15;;;2.80;;
20012;SDS011;10167;42.852;23.042;2024-01-15T05:40:19;2.17;;;1.60;;
20012;SDS011;10167;42.852;23.042;2024-01-15T05:42:48;8.50;;;4.15;;
20012;SDS011;10167;42.852;23.042;2024-01-15T05:45:18;9.60;;;3.90;;
20012;SDS011;10167;42.852;23.042;2024-01-15T05:47:48;4.18;;;1.88;;
20012;SDS011;10167;42.852;23.042;2024-01-15T05:50:18;1.48;;;1.40;;
20012;SDS011;10167;42.852;23.042;2024-01-15T05:52:47;2.60;;;2.40;;
20012;SDS011;10167;42.852;23.042;2024-01-15T05:55:16;13.95;;;4.22;;
20012;SDS011;10167;42.852;23.042;2024-01-15T05:57:45;3.28;;;1.77;;
20012;SDS011;10167;42.852;23.042;2024-01-15T06:00:15;3.90;;;2.90;;
20012;SDS011;10167;42.852;23.042;2024-01-15T06:02:45;5.40;;;3.65;;
20012;SDS011;10167;42.852;23.042;2024-01-15T06:05:15;3.78;;;3.30;;
20012;SDS011;10167;42.852;23.042;2024-01-15T06:07:44;9.15;;;4.80;;
20012;SDS011;10167;42.852;23.042;2024-01-15T06:10:14;3.85;;;3.55;;
20012;SDS011;10167;42.852;23.042;2024-01-15T06:12:44;5.82;;;3.63;;
20012;SDS011;10167;42.852;23.042;2024-01-15T06:15:13;2.42;;;2.22;;
20012;SDS011;10167;42.852;23.042;2024-01-15T06:17:42;7.55;;;2.58;;
20012;SDS011;10167;42.852;23.042;2024-01-15T06:20:12;4.55;;;4.22;;
20012;SDS011;10167;42.852;23.042;2024-01-15T06:22:45;2.60;;;1.95;;
20012;SDS011;10167;42.852;23.042;2024-01-15T06:25:15;5.45;;;2.88;;
20012;SDS011;10167;42.852;23.042;2024-01-15T06:27:44;3.65;;;2.42;;
20012;SDS011;10167;42.852;23.042;2024-01-15T06:30:14;5.28;;;3.40;;
20012;SDS011;10167;42.852;23.042;2024-01-15T06:32:43;4.45;;;3.03;;
20012;SDS011;10167;42.852;23.042;2024-01-15T06:35:13;3.85;;;2.30;;
20012;SDS011;10167;42.852;23.042;2024-01-15T06:37:44;18.80;;;2.85;;
20012;SDS011;10167;42.852;23.042;2024-01-15T06:40:14;17.25;;;2.58;;
20012;SDS011;10167;42.852;23.042;2024-01-15T06:42:43;5.28;;;2.70;;
20012;SDS011;10167;42.852;23.042;2024-01-15T06:45:12;4.57;;;3.28;;
20012;SDS011;10167;42.852;23.042;2024-01-15T06:47:41;3.40;;;2.50;;
20012;SDS011;10167;42.852;23.042;2024-01-15T06:50:11;9.93;;;4.65;;
20012;SDS011;10167;42.852;23.042;2024-01-15T06:52:40;4.85;;;2.65;;
20012;SDS011;10167;42.852;23.042;2024-01-15T06:55:10;5.38;;;4.85;;
20012;SDS011;10167;42.852;23.042;2024-01-15T06:57:40;5.40;;;4.03;;
20012;SDS011;10167;42.852;23.042;2024-01-15T07:00:10;5.25;;;3.55;;
20012;SDS011;10167;42.852;23.042;2024-01-15T07:02:40;18.85;;;3.90;;
20012;SDS011;10167;42.852;23.042;2024-01-15T07:05:09;5.75;;;4.25;;
20012;SDS011;10167;42.852;23.042;2024-01-15T07:07:38;13.20;;;4.68;;
20012;SDS011;10167;42.852;23.042;2024-01-15T07:10:08;5.13;;;3.72;;
20012;SDS011;10167;42.852;23.042;2024-01-15T07:12:39;5.38;;;3.55;;
20012;SDS011;10167;42.852;23.042;2024-01-15T07:15:10;2.05;;;1.75;;
20012;SDS011;10167;42.852;23.042;2024-01-15T07:17:39;7.03;;;5.00;;
20012;SDS011;10167;42.852;23.042;2024-01-15T07:20:10;3.00;;;2.40;;
20012;SDS011;10167;42.852;23.042;2024-01-15T07:22:40;5.90;;;5.03;;
20012;SDS011;10167;42.852;23.042;2024-01-15T07:25:09;7.47;;;3.50;;
20012;SDS011;10167;42.852;23.042;2024-01-15T07:27:39;4.88;;;3.30;;
20012;SDS011;10167;42.852;23.042;2024-01-15T07:30:12;9.43;;;3.60;;
20012;SDS011;10167;42.852;23.042;2024-01-15T07:32:42;2.00;;;1.88;;
20012;SDS011;10167;42.852;23.042;2024-01-15T07:35:11;2.15;;;1.70;;
20012;SDS011;10167;42.852;23.042;2024-01-15T07:37:40;3.65;;;3.25;;
20012;SDS011;10167;42.852;23.042;2024-01-15T07:40:10;4.30;;;1.88;;
20012;SDS011;10167;42.852;23.042;2024-01-15T07:42:41;1.92;;;1.83;;
20012;SDS011;10167;42.852;23.042;2024-01-15T07:45:10;1.95;;;1.65;;
20012;SDS011;10167;42.852;23.042;2024-01-15T07:47:40;4.78;;;4.15;;
20012;SDS011;10167;42.852;23.042;2024-01-15T07:50:10;2.42;;;2.25;;
20012;SDS011;10167;42.852;23.042;2024-01-15T07:52:39;4.28;;;3.08;;
20012;SDS011;10167;42.852;23.042;2024-01-15T07:55:09;5.72;;;4.95;;
20012;SDS011;10167;42.852;23.042;2024-01-15T07:57:38;8.90;;;4.65;;
20012;SDS011;10167;42.852;23.042;2024-01-15T08:00:09;10.80;;;5.13;;
20012;SDS011;10167;42.852;23.042;2024-01-15T08:02:39;7.10;;;4.50;;
20012;SDS011;10167;42.852;23.042;2024-01-15T08:05:07;6.85;;;5.38;;
20012;SDS011;10167;42.852;23.042;2024-01-15T08:07:37;9.73;;;5.38;;
20012;SDS011;10167;42.852;23.042;2024-01-15T08:10:06;9.48;;;3.92;;
20012;SDS011;10167;42.852;23.042;2024-01-15T08:12:35;4.75;;;3.75;;
20012;SDS011;10167;42.852;23.042;2024-01-15T08:15:04;4.65;;;4.22;;
20012;SDS011;10167;42.852;23.042;2024-01-15T08:17:35;9.82;;;4.50;;
20012;SDS011;10167;42.852;23.042;2024-01-15T08:20:05;4.70;;;3.35;;
20012;SDS011;10167;42.852;23.042;2024-01-15T08:22:34;8.27;;;4.03;;
20012;SDS011;10167;42.852;23.042;2024-01-15T08:25:04;5.35;;;4.95;;
20012;SDS011;10167;42.852;23.042;2024-01-15T08:27:33;8.95;;;6.68;;
20012;SDS011;10167;42.852;23.042;2024-01-15T08:30:02;2.10;;;1.35;;
20012;SDS011;10167;42.852;23.042;2024-01-15T08:32:32;3.60;;;3.28;;
20012;SDS011;10167;42.852;23.042;2024-01-15T08:35:04;8.57;;;4.18;;
20012;SDS011;10167;42.852;23.042;2024-01-15T08:37:34;3.80;;;3.00;;
20012;SDS011;10167;42.852;23.042;2024-01-15T08:40:03;8.85;;;4.68;;
20012;SDS011;10167;42.852;23.042;2024-01-15T08:42:32;14.88;;;5.50;;
20012;SDS011;10167;42.852;23.042;2024-01-15T08:45:02;7.22;;;5.05;;
20012;SDS011;10167;42.852;23.042;2024-01-15T08:47:31;7.93;;;5.28;;
20012;SDS011;10167;42.852;23.042;2024-01-15T08:50:00;11.75;;;3.63;;
20012;SDS011;10167;42.852;23.042;2024-01-15T08:52:31;13.07;;;6.80;;
20012;SDS011;10167;42.852;23.042;2024-01-15T08:55:00;5.80;;;3.08;;
20012;SDS011;10167;42.852;23.042;2024-01-15T08:57:29;9.48;;;3.42;;
20012;SDS011;10167;42.852;23.042;2024-01-15T08:59:58;3.30;;;3.03;;
20012;SDS011;10167;42.852;23.042;2024-01-15T09:02:30;12.60;;;3.85;;
20012;SDS011;10167;42.852;23.042;2024-01-15T09:04:59;7.38;;;4.55;;
20012;SDS011;10167;42.852;23.042;2024-01-15T09:07:29;5.22;;;3.33;;
20012;SDS011;10167;42.852;23.042;2024-01-15T09:09:59;4.97;;;3.78;;
20012;SDS011;10167;42.852;23.042;2024-01-15T09:12:30;3.78;;;3.47;;
20012;SDS011;10167;42.852;23.042;2024-01-15T09:14:59;7.07;;;1.48;;
20012;SDS011;10167;42.852;23.042;2024-01-15T09:17:32;3.67;;;3.28;;
20012;SDS011;10167;42.852;23.042;2024-01-15T09:20:01;2.08;;;1.77;;
20012;SDS011;10167;42.852;23.042;2024-01-15T09:22:31;4.38;;;3.13;;
20012;SDS011;10167;42.852;23.042;2024-01-15T09:25:02;7.88;;;3.80;;
20012;SDS011;10167;42.852;23.042;2024-01-15T09:27:32;2.85;;;2.00;;
20012;SDS011;10167;42.852;23.042;2024-01-15T09:30:01;2.92;;;2.53;;
20012;SDS011;10167;42.852;23.042;2024-01-15T09:32:33;4.40;;;2.35;;
20012;SDS011;10167;42.852;23.042;2024-01-15T09:35:02;1.58;;;1.45;;
20012;SDS011;10167;42.852;23.042;2024-01-15T09:37:32;2.72;;;2.35;;
20012;SDS011;10167;42.852;23.042;2024-01-15T09:40:14;3.53;;;3.22;;
20012;SDS011;10167;42.852;23.042;2024-01-15T09:42:44;3.17;;;2.88;;
20012;SDS011;10167;42.852;23.042;2024-01-15T09:45:15;1.92;;;1.05;;
20012;SDS011;10167;42.852;23.042;2024-01-15T09:47:45;2.75;;;2.50;;
20012;SDS011;10167;42.852;23.042;2024-01-15T09:50:15;3.10;;;2.15;;
20012;SDS011;10167;42.852;23.042;2024-01-15T09:52:44;2.33;;;2.10;;
20012;SDS011;10167;42.852;23.042;2024-01-15T09:55:15;6.20;;;1.85;;
20012;SDS011;10167;42.852;23.042;2024-01-15T09:57:46;2.90;;;2.58;;
20012;SDS011;10167;42.852;23.042;2024-01-15T10:00:17;11.00;;;2.80;;
20012;SDS011;10167;42.852;23.042;2024-01-15T10:02:47;1.70;;;1.50;;
20012;SDS011;10167;42.852;23.042;2024-01-15T10:05:17;1.00;;;0.95;;
20012;SDS011;10167;42.852;23.042;2024-01-15T10:07:46;5.70;;;3.00;;
20012;SDS011;10167;42.852;23.042;2024-01-15T10:10:19;2.20;;;2.10;;
20012;SDS011;10167;42.852;23.042;2024-01-15T10:12:49;3.45;;;2.28;;
20012;SDS011;10167;42.852;23.042;2024-01-15T10:15:22;5.65;;;2.70;;
20012;SDS011;10167;42.852;23.042;2024-01-15T10:17:54;2.20;;;1.27;;
20012;SDS011;10167;42.852;23.042;2024-01-15T10:20:23;4.68;;;2.78;;
20012;SDS011;10167;42.852;23.042;2024-01-15T10:22:52;3.33;;;2.58;;
20012;SDS011;10167;42.852;23.042;2024-01-15T10:25:23;2.55;;;1.85;;
20012;SDS011;10167;42.852;23.042;2024-01-15T10:27:58;1.83;;;1.73;;
20012;SDS011;10167;42.852;23.042;2024-01-15T10:30:29;3.92;;;3.28;;
20012;SDS011;10167;42.852;23.042;2024-01-15T10:33:01;1.35;;;1.25;;
20012;SDS011;10167;42.852;23.042;2024-01-15T10:35:33;5.53;;;2.43;;
20012;SDS011;10167;42.852;23.042;2024-01-15T10:38:15;3.13;;;1.25;;
20012;SDS011;10167;42.852;23.042;2024-01-15T10:40:46;1.73;;;1.60;;
20012;SDS011;10167;42.852;23.042;2024-01-15T10:43:16;1.30;;;0.80;;
20012;SDS011;10167;42.852;23.042;2024-01-15T10:45:46;1.52;;;1.42;;
20012;SDS011;10167;42.852;23.042;2024-01-15T10:48:16;7.75;;;2.38;;
20012;SDS011;10167;42.852;23.042;2024-01-15T10:50:47;1.95;;;1.80;;
20012;SDS011;10167;42.852;23.042;2024-01-15T10:53:16;3.78;;;1.00;;
20012;SDS011;10167;42.852;23.042;2024-01-15T10:55:47;6.53;;;1.73;;
20012;SDS011;10167;42.852;23.042;2024-01-15T10:58:17;1.95;;;1.75;;
20012;SDS011;10167;42.852;23.042;2024-01-15T11:00:49;4.40;;;2.80;;
20012;SDS011;10167;42.852;23.042;2024-01-15T11:03:19;2.25;;;2.03;;
20012;SDS011;10167;42.852;23.042;2024-01-15T11:05:49;2.10;;;1.90;;
20012;SDS011;10167;42.852;23.042;2024-01-15T11:08:18;3.95;;;1.35;;
20012;SDS011;10167;42.852;23.042;2024-01-15T11:10:51;2.30;;;2.10;;
20012;SDS011;10167;42.852;23.042;2024-01-15T11:13:22;1.60;;;0.77;;
20012;SDS011;10167;42.852;23.042;2024-01-15T11:16:09;3.50;;;2.58;;
20012;SDS011;10167;42.852;23.042;2024-01-15T11:18:40;4.15;;;2.88;;
20012;SDS011;10167;42.852;23.042;2024-01-15T11:21:22;2.58;;;1.85;;
20012;SDS011;10167;42.852;23.042;2024-01-15T11:23:55;2.38;;;1.80;;
20012;SDS011;10167;42.852;23.042;2024-01-15T11:26:34;6.00;;;3.17;;
20012;SDS011;10167;42.852;23.042;2024-01-15T11:29:05;8.18;;;4.57;;
20012;SDS011;10167;42.852;23.042;2024-01-15T11:34:55;1.33;;;0.98;;
20012;SDS011;10167;42.852;23.042;2024-01-15T11:40:38;3.45;;;2.50;;
20012;SDS011;10167;42.852;23.042;2024-01-15T11:43:12;1.65;;;1.52;;
20012;SDS011;10167;42.852;23.042;2024-01-15T11:45:44;3.85;;;2.58;;
20012;SDS011;10167;42.852;23.042;2024-01-15T11:48:13;12.52;;;2.88;;
20012;SDS011;10167;42.852;23.042;2024-01-15T11:50:45;0.75;;;0.65;;
20012;SDS011;10167;42.852;23.042;2024-01-15T11:53:20;5.57;;;3.80;;
20012;SDS011;10167;42.852;23.042;2024-01-15T11:56:01;2.65;;;1.20;;
20012;SDS011;10167;42.852;23.042;2024-01-15T11:58:37;1.00;;;0.93;;
20012;SDS011;10167;42.852;23.042;2024-01-15T12:01:06;4.15;;;2.92;;
20012;SDS011;10167;42.852;23.042;2024-01-15T12:03:35;3.85;;;2.40;;
20012;SDS011;10167;42.852;23.042;2024-01-15T12:06:05;4.10;;;2.85;;
20012;SDS011;10167;42.852;23.042;2024-01-15T12:08:35;3.80;;;2.92;;
20012;SDS011;10167;42.852;23.042;2024-01-15T12:11:05;3.00;;;2.28;;
20012;SDS011;10167;42.852;23.042;2024-01-15T12:13:41;5.57;;;2.58;;
20012;SDS011;10167;42.852;23.042;2024-01-15T12:16:10;2.65;;;1.85;;
20012;SDS011;10167;42.852;23.042;2024-01-15T12:18:40;1.85;;;1.30;;
20012;SDS011;10167;42.852;23.042;2024-01-15T12:21:11;5.82;;;3.00;;
20012;SDS011;10167;42.852;23.042;2024-01-15T12:23:40;3.70;;;2.33;;
20012;SDS011;10167;42.852;23.042;2024-01-15T12:26:10;2.33;;;1.58;;
20012;SDS011;10167;42.852;23.042;2024-01-15T12:28:41;9.77;;;1.50;;
20012;SDS011;10167;42.852;23.042;2024-01-15T12:31:11;3.75;;;1.42;;
20012;SDS011;10167;42.852;23.042;2024-01-15T12:33:40;3.72;;;1.88;;
20012;SDS011;10167;42.852;23.042;2024-01-15T12:36:09;3.33;;;1.95;;
20012;SDS011;10167;42.852;23.042;2024-01-15T12:38:41;6.63;;;3.45;;
20012;SDS011;10167;42.852;23.042;2024-01-15T12:41:12;1.75;;;1.42;;
20012;SDS011;10167;42.852;23.042;2024-01-15T12:43:43;1.58;;;1.38;;
20012;SDS011;10167;42.852;23.042;2024-01-15T12:46:13;4.30;;;2.85;;
20012;SDS011;10167;42.852;23.042;2024-01-15T12:48:43;8.70;;;4.75;;
20012;SDS011;10167;42.852;23.042;2024-01-15T12:51:13;1.52;;;1.42;;
20012;SDS011;10167;42.852;23.042;2024-01-15T12:53:44;6.82;;;3.03;;
20012;SDS011;10167;42.852;23.042;2024-01-15T12:56:13;2.15;;;1.95;;
20012;SDS011;10167;42.852;23.042;2024-01-15T12:58:44;1.00;;;1.00;;
20012;SDS011;10167;42.852;23.042;2024-01-15T13:01:14;3.38;;;1.60;;
20012;SDS011;10167;42.852;23.042;2024-01-15T13:03:43;7.55;;;2.63;;
20012;SDS011;10167;42.852;23.042;2024-01-15T13:06:13;5.30;;;3.15;;
20012;SDS011;10167;42.852;23.042;2024-01-15T13:08:42;7.95;;;4.13;;
20012;SDS011;10167;42.852;23.042;2024-01-15T13:11:12;2.42;;;1.83;;
20012;SDS011;10167;42.852;23.042;2024-01-15T13:13:41;4.47;;;3.42;;
20012;SDS011;10167;42.852;23.042;2024-01-15T13:16:12;12.68;;;1.90;;
20012;SDS011;10167;42.852;23.042;2024-01-15T13:18:41;2.50;;;2.15;;
20012;SDS011;10167;42.852;23.042;2024-01-15T13:21:11;4.88;;;2.83;;
20012;SDS011;10167;42.852;23.042;2024-01-15T13:23:41;2.00;;;1.60;;
20012;SDS011;10167;42.852;23.042;2024-01-15T13:26:10;1.52;;;1.30;;
20012;SDS011;10167;42.852;23.042;2024-01-15T13:28:40;6.53;;;2.83;;
20012;SDS011;10167;42.852;23.042;2024-01-15T13:31:09;3.67;;;2.13;;
20012;SDS011;10167;42.852;23.042;2024-01-15T13:33:40;3.00;;;2.45;;
20012;SDS011;10167;42.852;23.042;2024-01-15T13:36:11;2.60;;;1.92;;
20012;SDS011;10167;42.852;23.042;2024-01-15T13:38:40;3.30;;;2.03;;
20012;SDS011;10167;42.852;23.042;2024-01-15T13:41:09;5.22;;;2.50;;
20012;SDS011;10167;42.852;23.042;2024-01-15T13:43:38;4.00;;;3.25;;
20012;SDS011;10167;42.852;23.042;2024-01-15T13:46:08;6.30;;;2.42;;
20012;SDS011;10167;42.852;23.042;2024-01-15T13:48:37;3.30;;;2.97;;
20012;SDS011;10167;42.852;23.042;2024-01-15T13:51:08;3.40;;;2.53;;
20012;SDS011;10167;42.852;23.042;2024-01-15T13:53:39;5.13;;;2.90;;
20012;SDS011;10167;42.852;23.042;2024-01-15T13:56:08;4.80;;;3.55;;
20012;SDS011;10167;42.852;23.042;2024-01-15T13:58:38;5.75;;;4.10;;
20012;SDS011;10167;42.852;23.042;2024-01-15T14:01:07;5.65;;;2.80;;
20012;SDS011;10167;42.852;23.042;2024-01-15T14:03:38;7.45;;;2.95;;
20012;SDS011;10167;42.852;23.042;2024-01-15T14:06:09;6.63;;;2.67;;
20012;SDS011;10167;42.852;23.042;2024-01-15T14:08:38;9.27;;;3.95;;
20012;SDS011;10167;42.852;23.042;2024-01-15T14:11:07;6.75;;;3.83;;
20012;SDS011;10167;42.852;23.042;2024-01-15T14:13:37;15.23;;;7.07;;
20012;SDS011;10167;42.852;23.042;2024-01-15T14:16:07;27.00;;;8.85;;
20012;SDS011;10167;42.852;23.042;2024-01-15T14:18:38;18.83;;;9.07;;
20012;SDS011;10167;42.852;23.042;2024-01-15T14:21:09;18.50;;;10.73;;
20012;SDS011;10167;42.852;23.042;2024-01-15T14:23:38;5.40;;;3.28;;
20012;SDS011;10167;42.852;23.042;2024-01-15T14:26:08;5.38;;;4.25;;
20012;SDS011;10167;42.852;23.042;2024-01-15T14:28:37;7.25;;;4.75;;
20012;SDS011;10167;42.852;23.042;2024-01-15T14:31:07;5.78;;;3.53;;
20012;SDS011;10167;42.852;23.042;2024-01-15T14:33:36;3.70;;;2.47;;
20012;SDS011;10167;42.852;23.042;2024-01-15T14:36:07;4.57;;;3.25;;
20012;SDS011;10167;42.852;23.042;2024-01-15T14:38:38;3.80;;;2.97;;
20012;SDS011;10167;42.852;23.042;2024-01-15T14:41:07;6.68;;;2.42;;
20012;SDS011;10167;42.852;23.042;2024-01-15T14:43:39;8.40;;;2.83;;
20012;SDS011;10167;42.852;23.042;2024-01-15T14:46:09;12.27;;;7.03;;
20012;SDS011;10167;42.852;23.042;2024-01-15T14:48:38;18.48;;;9.73;;
20012;SDS011;10167;42.852;23.042;2024-01-15T14:51:09;13.80;;;7.70;;
20012;SDS011;10167;42.852;23.042;2024-01-15T14:53:39;8.23;;;6.70;;
20012;SDS011;10167;42.852;23.042;2024-01-15T14:56:08;8.05;;;3.78;;
20012;SDS011;10167;42.852;23.042;2024-01-15T14:58:40;23.60;;;8.93;;
20012;SDS011;10167;42.852;23.042;2024-01-15T15:01:10;31.85;;;13.43;;